createdAt,value
2019-04-06T00:00:19.674Z,20.07
2019-04-06T00:01:19.627Z,20.08
2019-04-06T00:02:19.632Z,20.03
2019-04-06T00:03:19.608Z,20.08
2019-04-06T00:04:19.605Z,20.07
2019-04-06T00:05:19.582Z,20.10
2019-04-06T00:06:19.566Z,20.03
2019-04-06T00:07:19.578Z,20.04
2019-04-06T00:08:19.554Z,20.03
2019-04-06T00:09:19.540Z,20.07
2019-04-06T00:10:19.530Z,20.02
2019-04-06T00:11:19.525Z,20.04
2019-04-06T00:12:19.546Z,19.93
2019-04-06T00:13:19.500Z,20.04
2019-04-06T00:14:19.489Z,19.96
2019-04-06T00:15:19.481Z,20.02
2019-04-06T00:16:19.463Z,19.99
2019-04-06T00:17:19.470Z,19.99
2019-04-06T00:18:19.442Z,19.94
2019-04-06T00:19:19.436Z,19.92
2019-04-06T00:20:19.424Z,19.96
2019-04-06T00:21:19.413Z,19.84
2019-04-06T00:22:19.424Z,19.90
2019-04-06T00:23:19.392Z,19.90
2019-04-06T00:24:19.377Z,19.89
2019-04-06T00:25:19.374Z,19.92
2019-04-06T00:26:19.356Z,19.96
2019-04-06T00:27:19.378Z,19.92
2019-04-06T00:28:19.337Z,19.94
2019-04-06T00:29:19.332Z,19.94
2019-04-06T00:30:19.990Z,19.92
2019-04-06T00:31:19.307Z,19.89
2019-04-06T00:32:19.297Z,19.94
2019-04-06T00:33:19.300Z,19.99
2019-04-06T00:34:19.327Z,19.96
2019-04-06T00:35:19.266Z,19.96
2019-04-06T00:36:19.279Z,19.90
2019-04-06T00:37:19.250Z,19.93
2019-04-06T00:38:19.255Z,19.87
2019-04-06T00:39:19.225Z,19.92
2019-04-06T00:40:19.214Z,19.90
2019-04-06T00:41:19.197Z,19.90
2019-04-06T00:42:19.201Z,19.96
2019-04-06T00:43:19.193Z,19.94
2019-04-06T00:44:19.207Z,19.94
2019-04-06T00:45:19.160Z,19.94
2019-04-06T00:46:19.181Z,19.94
2019-04-06T00:47:19.139Z,19.94
2019-04-06T00:48:19.142Z,19.90
2019-04-06T00:49:19.120Z,19.93
2019-04-06T00:50:19.107Z,19.87
2019-04-06T00:51:19.106Z,19.87
2019-04-06T00:52:19.087Z,19.90
2019-04-06T00:53:19.090Z,19.90
2019-04-06T00:54:19.061Z,19.81
2019-04-06T00:55:19.058Z,19.81
2019-04-06T00:56:19.044Z,19.89
2019-04-06T00:57:19.035Z,19.87
2019-04-06T00:58:19.050Z,19.81
2019-04-06T00:59:19.022Z,19.87
2019-04-06T01:00:19.002Z,19.94
2019-04-06T01:01:18.991Z,19.87
2019-04-06T01:02:18.983Z,19.81
2019-04-06T01:03:18.980Z,19.85
2019-04-06T01:04:18.963Z,19.79
2019-04-06T01:05:19.060Z,19.82
2019-04-06T01:06:19.057Z,19.82
2019-04-06T01:07:19.063Z,19.78
2019-04-06T01:08:19.216Z,19.84
2019-04-06T01:09:19.019Z,19.93
2019-04-06T01:10:18.941Z,19.82
2019-04-06T01:11:19.127Z,19.99
2019-04-06T01:12:18.946Z,20.14
2019-04-06T01:13:18.972Z,20.32
2019-04-06T01:14:18.903Z,20.56
2019-04-06T01:15:18.915Z,20.85
2019-04-06T01:16:18.888Z,21.04
2019-04-06T01:17:18.873Z,21.13
2019-04-06T01:18:19.027Z,21.30
2019-04-06T01:19:18.839Z,21.44
2019-04-06T01:20:18.874Z,21.56
2019-04-06T01:21:18.836Z,21.77
2019-04-06T01:22:18.817Z,21.91
2019-04-06T01:23:18.882Z,21.99
2019-04-06T01:24:18.851Z,22.04
2019-04-06T01:25:18.852Z,22.14
2019-04-06T01:26:18.778Z,22.26
2019-04-06T01:27:18.820Z,22.31
2019-04-06T01:28:18.748Z,22.43
2019-04-06T01:29:18.853Z,22.49
2019-04-06T01:30:18.767Z,22.52
2019-04-06T01:31:18.718Z,22.53
2019-04-06T01:32:18.664Z,22.53
2019-04-06T01:33:18.783Z,22.67
2019-04-06T01:34:18.654Z,22.76
2019-04-06T01:35:18.633Z,22.81
2019-04-06T01:36:18.618Z,22.93
2019-04-06T01:37:18.616Z,23.01
2019-04-06T01:38:18.608Z,23.07
2019-04-06T01:39:18.613Z,23.02
2019-04-06T01:40:18.577Z,23.02
2019-04-06T01:41:18.572Z,23.06
2019-04-06T01:42:18.624Z,23.07
2019-04-06T01:43:18.552Z,23.11
2019-04-06T01:44:18.558Z,22.96
2019-04-06T01:45:18.547Z,23.01
2019-04-06T01:46:18.521Z,22.95
2019-04-06T01:47:18.511Z,22.91
2019-04-06T01:48:18.509Z,22.76
2019-04-06T01:49:18.551Z,22.76
2019-04-06T01:50:18.482Z,22.73
2019-04-06T01:51:18.466Z,22.62
2019-04-06T01:52:18.459Z,22.59
2019-04-06T01:53:18.452Z,22.51
2019-04-06T01:54:18.453Z,22.52
2019-04-06T01:55:18.426Z,22.36
2019-04-06T01:56:19.131Z,22.36
2019-04-06T01:57:18.410Z,22.26
2019-04-06T01:58:18.393Z,22.31
2019-04-06T01:59:18.438Z,22.23
2019-04-06T02:00:18.416Z,22.14
2019-04-06T02:01:18.367Z,22.10
2019-04-06T02:02:18.350Z,22.06
2019-04-06T02:03:18.342Z,22.03
2019-04-06T02:04:18.344Z,22.01
2019-04-06T02:05:18.321Z,21.96
2019-04-06T02:06:18.310Z,21.91
2019-04-06T02:07:18.303Z,21.88
2019-04-06T02:08:18.285Z,21.78
2019-04-06T02:09:18.288Z,21.81
2019-04-06T02:10:18.262Z,21.77
2019-04-06T02:11:18.256Z,21.80
2019-04-06T02:12:18.243Z,21.74
2019-04-06T02:13:18.228Z,21.69
2019-04-06T02:14:18.334Z,21.63
2019-04-06T02:15:18.214Z,21.65
2019-04-06T02:16:18.200Z,21.68
2019-04-06T02:17:18.186Z,21.60
2019-04-06T02:18:18.181Z,21.65
2019-04-06T02:19:18.188Z,21.66
2019-04-06T02:20:18.159Z,21.68
2019-04-06T02:21:18.149Z,21.66
2019-04-06T02:22:18.178Z,21.63
2019-04-06T02:23:18.121Z,21.60
2019-04-06T02:24:18.114Z,21.53
2019-04-06T02:25:18.118Z,21.59
2019-04-06T02:26:29.057Z,21.50
2019-04-06T02:27:19.079Z,21.56
2019-04-06T02:28:18.085Z,21.50
2019-04-06T02:29:18.050Z,21.50
2019-04-06T02:30:18.065Z,21.37
2019-04-06T02:31:18.035Z,21.35
2019-04-06T02:32:18.037Z,21.35
2019-04-06T02:33:18.033Z,21.35
2019-04-06T02:34:18.008Z,21.29
2019-04-06T02:35:18.178Z,21.22
2019-04-06T02:36:17.981Z,21.20
2019-04-06T02:37:17.968Z,21.17
2019-04-06T02:38:17.960Z,21.13
2019-04-06T02:39:17.950Z,21.10
2019-04-06T02:40:17.951Z,21.07
2019-04-06T02:41:17.928Z,21.04
2019-04-06T02:42:17.915Z,21.01
2019-04-06T02:43:17.910Z,20.96
2019-04-06T02:44:17.903Z,21.00
2019-04-06T02:45:17.969Z,20.93
2019-04-06T02:46:18.005Z,20.89
2019-04-06T02:47:17.882Z,20.88
2019-04-06T02:48:17.862Z,20.75
2019-04-06T02:49:17.974Z,20.78
2019-04-06T02:50:17.851Z,20.85
2019-04-06T02:51:17.834Z,20.85
2019-04-06T02:52:18.090Z,20.86
2019-04-06T02:53:17.808Z,20.82
2019-04-06T02:54:17.795Z,20.71
2019-04-06T02:55:17.807Z,20.73
2019-04-06T02:56:17.771Z,20.66
2019-04-06T02:57:17.817Z,20.73
2019-04-06T02:58:17.751Z,20.60
2019-04-06T02:59:17.903Z,20.66
2019-04-06T03:00:17.760Z,20.60
2019-04-06T03:01:17.718Z,20.53
2019-04-06T03:02:17.708Z,20.58
2019-04-06T03:03:17.696Z,20.55
2019-04-06T03:04:17.682Z,20.53
2019-04-06T03:05:17.674Z,20.50
2019-04-06T03:06:17.681Z,20.60
2019-04-06T03:07:17.749Z,20.52
2019-04-06T03:08:17.643Z,20.48
2019-04-06T03:09:17.644Z,20.50
2019-04-06T03:10:17.624Z,20.49
2019-04-06T03:11:17.816Z,20.48
2019-04-06T03:12:17.608Z,20.42
2019-04-06T03:13:17.589Z,20.44
2019-04-06T03:14:17.582Z,20.39
2019-04-06T03:15:17.568Z,20.49
2019-04-06T03:16:17.577Z,20.34
2019-04-06T03:17:17.559Z,20.42
2019-04-06T03:18:17.548Z,20.48
2019-04-06T03:19:17.671Z,20.36
2019-04-06T03:20:17.517Z,20.37
2019-04-06T03:21:17.526Z,20.34
2019-04-06T03:22:17.636Z,20.21
2019-04-06T03:23:17.488Z,20.26
2019-04-06T03:24:17.474Z,20.21
2019-04-06T03:25:17.468Z,20.27
2019-04-06T03:26:17.718Z,20.27
2019-04-06T03:27:17.448Z,20.29
2019-04-06T03:28:17.492Z,20.24
2019-04-06T03:29:17.433Z,20.26
2019-04-06T03:30:17.455Z,20.29
2019-04-06T03:31:23.087Z,20.12
2019-04-06T03:32:18.396Z,20.12
2019-04-06T03:33:17.396Z,20.18
2019-04-06T03:34:21.214Z,20.27
2019-04-06T03:35:17.366Z,20.19
2019-04-06T03:36:17.373Z,20.18
2019-04-06T03:37:17.394Z,20.21
2019-04-06T03:38:17.337Z,20.18
2019-04-06T03:39:17.324Z,20.15
2019-04-06T03:40:17.315Z,20.17
2019-04-06T03:41:17.316Z,20.12
2019-04-06T03:42:17.352Z,20.10
2019-04-06T03:43:17.281Z,20.10
2019-04-06T03:44:17.385Z,20.14
2019-04-06T03:45:17.343Z,20.07
2019-04-06T03:46:19.656Z,20.07
2019-04-06T03:47:17.629Z,20.08
2019-04-06T03:48:17.230Z,20.07
2019-04-06T03:49:17.229Z,20.08
2019-04-06T03:50:17.207Z,20.18
2019-04-06T03:51:17.199Z,20.21
2019-04-06T03:52:17.206Z,20.52
2019-04-06T03:53:17.182Z,20.74
2019-04-06T03:54:17.168Z,21.03
2019-04-06T03:55:17.161Z,21.37
2019-04-06T03:56:17.147Z,21.50
2019-04-06T03:57:17.318Z,21.85
2019-04-06T03:58:17.287Z,21.99
2019-04-06T03:59:17.127Z,22.28
2019-04-06T04:00:17.268Z,22.47
2019-04-06T04:01:17.097Z,22.68
2019-04-06T04:02:17.103Z,22.91
2019-04-06T04:03:17.153Z,23.04
2019-04-06T04:04:17.068Z,23.29
2019-04-06T04:05:17.062Z,23.28
2019-04-06T04:06:17.070Z,23.44
2019-04-06T04:07:17.051Z,23.51
2019-04-06T04:08:17.029Z,23.54
2019-04-06T04:09:17.279Z,23.66
2019-04-06T04:10:17.192Z,23.52
2019-04-06T04:11:16.995Z,23.49
2019-04-06T04:12:17.063Z,23.48
2019-04-06T04:13:16.974Z,23.40
2019-04-06T04:14:16.961Z,23.44
2019-04-06T04:15:16.950Z,23.42
2019-04-06T04:16:16.943Z,23.28
2019-04-06T04:17:16.941Z,23.33
2019-04-06T04:18:16.922Z,23.08
2019-04-06T04:19:16.911Z,23.11
2019-04-06T04:20:16.907Z,22.96
2019-04-06T04:21:16.884Z,22.91
2019-04-06T04:22:17.053Z,22.84
2019-04-06T04:23:16.865Z,22.73
2019-04-06T04:24:16.854Z,22.62
2019-04-06T04:25:16.954Z,22.56
2019-04-06T04:26:16.834Z,22.46
2019-04-06T04:27:27.748Z,22.40
2019-04-06T04:28:17.811Z,22.37
2019-04-06T04:29:16.866Z,22.31
2019-04-06T04:30:30.758Z,22.23
2019-04-06T04:31:17.773Z,22.18
2019-04-06T04:32:16.893Z,22.10
2019-04-06T04:33:16.761Z,22.07
2019-04-06T04:34:16.753Z,22.07
2019-04-06T04:35:18.535Z,21.92
2019-04-06T04:36:16.721Z,21.91
2019-04-06T04:37:16.732Z,21.83
2019-04-06T04:38:16.709Z,21.84
2019-04-06T04:39:16.771Z,21.84
2019-04-06T04:40:16.695Z,21.78
2019-04-06T04:41:16.677Z,21.80
2019-04-06T04:42:16.815Z,21.77
2019-04-06T04:43:16.659Z,21.68
2019-04-06T04:44:16.650Z,21.69
2019-04-06T04:45:16.633Z,21.60
2019-04-06T04:46:16.620Z,21.60
2019-04-06T04:47:16.625Z,21.60
2019-04-06T04:48:16.728Z,21.47
2019-04-06T04:49:16.596Z,21.65
2019-04-06T04:50:16.577Z,21.51
2019-04-06T04:51:16.657Z,21.59
2019-04-06T04:52:16.578Z,21.56
2019-04-06T04:53:16.546Z,21.58
2019-04-06T04:54:16.534Z,21.60
2019-04-06T04:55:16.523Z,21.59
2019-04-06T04:56:16.576Z,21.58
2019-04-06T04:57:16.560Z,21.47
2019-04-06T04:58:16.492Z,21.56
2019-04-06T04:59:16.635Z,21.47
2019-04-06T05:00:16.624Z,21.53
2019-04-06T05:01:16.460Z,21.44
2019-04-06T05:02:16.448Z,21.48
2019-04-06T05:03:16.878Z,21.53
2019-04-06T05:04:16.426Z,21.38
2019-04-06T05:05:16.417Z,21.41
2019-04-06T05:06:16.412Z,21.37
2019-04-06T05:07:16.402Z,21.35
2019-04-06T05:08:16.408Z,21.37
2019-04-06T05:09:16.374Z,21.26
2019-04-06T05:10:16.366Z,21.38
2019-04-06T05:11:16.358Z,21.32
2019-04-06T05:12:16.349Z,21.25
2019-04-06T05:13:16.346Z,21.25
2019-04-06T05:14:16.323Z,21.15
2019-04-06T05:15:16.310Z,21.15
2019-04-06T05:16:16.299Z,21.14
2019-04-06T05:17:16.336Z,21.17
2019-04-06T05:18:16.314Z,21.10
2019-04-06T05:19:16.330Z,21.07
2019-04-06T05:20:16.380Z,21.07
2019-04-06T05:21:16.370Z,21.03
2019-04-06T05:22:16.399Z,20.96
2019-04-06T05:23:16.313Z,20.98
2019-04-06T05:24:16.315Z,20.88
2019-04-06T05:25:16.944Z,20.89
2019-04-06T05:26:17.734Z,20.82
2019-04-06T05:27:16.329Z,20.83
2019-04-06T05:28:16.784Z,20.89
2019-04-06T05:29:16.693Z,20.83
2019-04-06T05:30:16.171Z,20.90
2019-04-06T05:31:16.158Z,20.82
2019-04-06T05:32:16.138Z,20.85
2019-04-06T05:33:16.885Z,20.78
2019-04-06T05:34:16.168Z,20.74
2019-04-06T05:35:16.302Z,20.70
2019-04-06T05:36:16.120Z,20.71
2019-04-06T05:37:16.086Z,20.75
2019-04-06T05:38:16.275Z,20.70
2019-04-06T05:39:16.647Z,20.75
2019-04-06T05:40:16.219Z,20.71
2019-04-06T05:41:16.364Z,20.64
2019-04-06T05:42:16.168Z,20.66
2019-04-06T05:43:16.067Z,20.59
2019-04-06T05:44:16.665Z,20.58
2019-04-06T05:45:16.036Z,20.58
2019-04-06T05:46:16.000Z,20.56
2019-04-06T05:47:16.039Z,20.55
2019-04-06T05:48:15.994Z,20.56
2019-04-06T05:49:15.989Z,20.58
2019-04-06T05:50:15.957Z,20.52
2019-04-06T05:51:15.946Z,20.46
2019-04-06T05:52:15.941Z,20.48
2019-04-06T05:53:16.207Z,20.44
2019-04-06T05:54:15.956Z,20.40
2019-04-06T05:55:15.915Z,20.40
2019-04-06T05:56:15.954Z,20.36
2019-04-06T05:57:15.958Z,20.50
2019-04-06T05:58:17.182Z,20.40
2019-04-06T05:59:15.872Z,20.33
2019-04-06T06:00:15.851Z,20.37
2019-04-06T06:01:15.890Z,20.37
2019-04-06T06:02:15.946Z,20.42
2019-04-06T06:03:15.964Z,20.46
2019-04-06T06:04:15.814Z,20.44
2019-04-06T06:05:15.806Z,20.46
2019-04-06T06:06:15.824Z,20.48
2019-04-06T06:07:15.791Z,20.42
2019-04-06T06:08:15.795Z,20.44
2019-04-06T06:09:15.763Z,20.42
2019-04-06T06:10:15.967Z,20.42
2019-04-06T06:11:15.736Z,20.37
2019-04-06T06:12:15.865Z,20.48
2019-04-06T06:13:15.724Z,20.46
2019-04-06T06:14:15.726Z,20.42
2019-04-06T06:15:15.700Z,20.33
2019-04-06T06:16:15.690Z,20.46
2019-04-06T06:17:15.703Z,20.42
2019-04-06T06:18:25.862Z,20.40
2019-04-06T06:19:16.678Z,20.46
2019-04-06T06:20:15.651Z,20.40
2019-04-06T06:21:15.646Z,20.36
2019-04-06T06:22:15.625Z,20.33
2019-04-06T06:23:15.620Z,20.37
2019-04-06T06:24:15.657Z,20.48
2019-04-06T06:25:15.600Z,20.37
2019-04-06T06:26:15.713Z,20.58
2019-04-06T06:27:15.584Z,20.66
2019-04-06T06:28:15.691Z,20.85
2019-04-06T06:29:15.724Z,20.90
2019-04-06T06:30:16.284Z,20.93
2019-04-06T06:31:15.538Z,21.19
2019-04-06T06:32:15.529Z,21.20
2019-04-06T06:33:15.520Z,21.40
2019-04-06T06:34:15.522Z,21.59
2019-04-06T06:35:15.502Z,21.72
2019-04-06T06:36:15.507Z,21.89
2019-04-06T06:37:15.475Z,22.06
2019-04-06T06:38:15.460Z,22.31
2019-04-06T06:39:15.848Z,22.44
2019-04-06T06:40:15.443Z,22.55
2019-04-06T06:41:15.500Z,22.61
2019-04-06T06:42:15.427Z,22.67
2019-04-06T06:43:15.413Z,22.78
2019-04-06T06:44:15.416Z,22.70
2019-04-06T06:45:15.489Z,22.76
2019-04-06T06:46:15.387Z,22.67
2019-04-06T06:47:15.497Z,22.81
2019-04-06T06:48:15.358Z,22.84
2019-04-06T06:49:15.477Z,22.98
2019-04-06T06:50:15.514Z,22.99
2019-04-06T06:51:15.332Z,23.07
2019-04-06T06:52:15.340Z,22.99
2019-04-06T06:53:15.310Z,22.98
2019-04-06T06:54:15.323Z,22.96
2019-04-06T06:55:15.286Z,22.81
2019-04-06T06:56:15.280Z,22.80
2019-04-06T06:57:15.283Z,22.71
2019-04-06T06:58:24.629Z,22.62
2019-04-06T06:59:16.260Z,22.61
2019-04-06T07:00:15.236Z,22.49
2019-04-06T07:01:15.224Z,22.44
2019-04-06T07:02:15.212Z,22.47
2019-04-06T07:03:15.199Z,22.37
2019-04-06T07:04:15.215Z,22.28
2019-04-06T07:05:15.323Z,22.28
2019-04-06T07:06:15.168Z,22.22
2019-04-06T07:07:15.157Z,22.21
2019-04-06T07:08:15.150Z,22.16
2019-04-06T07:09:15.257Z,22.12
2019-04-06T07:10:15.152Z,22.08
2019-04-06T07:11:15.120Z,22.04
2019-04-06T07:12:15.110Z,21.96
2019-04-06T07:13:15.126Z,22.01
2019-04-06T07:14:15.184Z,21.92
2019-04-06T07:15:15.091Z,21.94
2019-04-06T07:16:15.064Z,21.89
2019-04-06T07:17:15.057Z,21.91
2019-04-06T07:18:15.411Z,21.94
2019-04-06T07:19:15.032Z,21.89
2019-04-06T07:20:15.043Z,21.96
2019-04-06T07:21:16.652Z,21.91
2019-04-06T07:22:14.996Z,21.85
2019-04-06T07:23:15.071Z,21.84
2019-04-06T07:24:15.023Z,21.80
2019-04-06T07:25:14.979Z,21.77
2019-04-06T07:26:14.993Z,21.84
2019-04-06T07:27:14.953Z,21.77
2019-04-06T07:28:14.937Z,21.77
2019-04-06T07:29:14.928Z,21.74
2019-04-06T07:30:14.937Z,21.70
2019-04-06T07:31:14.911Z,21.77
2019-04-06T07:32:14.945Z,21.78
2019-04-06T07:33:14.887Z,21.70
2019-04-06T07:34:14.906Z,21.72
2019-04-06T07:35:14.916Z,21.69
2019-04-06T07:36:14.858Z,21.80
2019-04-06T07:37:14.845Z,21.69
2019-04-06T07:38:14.854Z,21.77
2019-04-06T07:39:14.826Z,21.78
2019-04-06T07:40:14.814Z,21.77
2019-04-06T07:41:14.821Z,21.72
2019-04-06T07:42:14.792Z,21.62
2019-04-06T07:43:14.905Z,21.66
2019-04-06T07:44:14.840Z,21.65
2019-04-06T07:45:14.765Z,21.68
2019-04-06T07:46:14.758Z,21.68
2019-04-06T07:47:14.743Z,21.63
2019-04-06T07:48:14.727Z,21.68
2019-04-06T07:49:14.749Z,21.68
2019-04-06T07:50:14.711Z,21.66
2019-04-06T07:51:14.807Z,21.68
2019-04-06T07:52:14.698Z,21.63
2019-04-06T07:53:15.092Z,21.63
2019-04-06T07:54:14.771Z,21.62
2019-04-06T07:55:14.652Z,21.66
2019-04-06T07:56:14.668Z,21.60
2019-04-06T07:57:14.637Z,21.63
2019-04-06T07:58:14.829Z,21.56
2019-04-06T07:59:14.811Z,21.54
2019-04-06T08:00:14.608Z,21.54
2019-04-06T08:01:14.757Z,21.50
2019-04-06T08:02:14.583Z,21.51
2019-04-06T08:03:14.759Z,21.56
2019-04-06T08:04:14.833Z,21.59
2019-04-06T08:05:14.554Z,21.58
2019-04-06T08:06:14.598Z,21.45
2019-04-06T08:07:14.549Z,21.48
2019-04-06T08:08:14.516Z,21.50
2019-04-06T08:09:14.511Z,21.50
2019-04-06T08:10:14.506Z,21.41
2019-04-06T08:11:14.514Z,21.45
2019-04-06T08:12:14.480Z,21.33
2019-04-06T08:13:14.461Z,21.37
2019-04-06T08:14:14.456Z,21.32
2019-04-06T08:15:14.442Z,21.37
2019-04-06T08:16:14.435Z,21.35
2019-04-06T08:17:14.464Z,21.29
2019-04-06T08:18:14.408Z,21.25
2019-04-06T08:19:14.398Z,21.33
2019-04-06T08:20:14.397Z,21.28
2019-04-06T08:21:14.383Z,21.26
2019-04-06T08:22:14.436Z,21.23
2019-04-06T08:23:14.395Z,21.26
2019-04-06T08:24:14.345Z,21.26
2019-04-06T08:25:14.334Z,21.25
2019-04-06T08:26:14.323Z,21.23
2019-04-06T08:27:14.755Z,21.28
2019-04-06T08:28:14.379Z,21.26
2019-04-06T08:29:14.545Z,21.19
2019-04-06T08:30:14.381Z,21.20
2019-04-06T08:31:14.274Z,21.20
2019-04-06T08:32:14.358Z,21.25
2019-04-06T08:33:14.244Z,21.17
2019-04-06T08:34:14.273Z,21.25
2019-04-06T08:35:24.404Z,21.23
2019-04-06T08:36:15.244Z,21.19
2019-04-06T08:37:14.485Z,21.20
2019-04-06T08:38:14.198Z,21.13
2019-04-06T08:39:14.194Z,21.14
2019-04-06T08:40:14.325Z,21.11
2019-04-06T08:41:14.194Z,21.15
2019-04-06T08:42:14.205Z,21.22
2019-04-06T08:43:14.276Z,21.17
2019-04-06T08:44:14.706Z,21.17
2019-04-06T08:45:14.505Z,21.14
2019-04-06T08:46:14.127Z,21.10
2019-04-06T08:47:14.108Z,21.17
2019-04-06T08:48:14.096Z,21.17
2019-04-06T08:49:14.086Z,21.15
2019-04-06T08:50:14.066Z,21.13
2019-04-06T08:51:14.075Z,21.17
2019-04-06T08:52:14.287Z,21.07
2019-04-06T08:53:14.116Z,21.08
2019-04-06T08:54:14.045Z,21.08
2019-04-06T08:55:14.013Z,21.14
2019-04-06T08:56:14.021Z,21.14
2019-04-06T08:57:13.998Z,21.07
2019-04-06T08:58:13.984Z,21.07
2019-04-06T08:59:13.971Z,21.07
2019-04-06T09:00:13.979Z,21.10
2019-04-06T09:01:13.976Z,21.10
2019-04-06T09:02:13.945Z,21.08
2019-04-06T09:03:13.926Z,21.08
2019-04-06T09:04:13.918Z,21.08
2019-04-06T09:05:13.910Z,21.07
2019-04-06T09:06:14.081Z,21.08
2019-04-06T09:07:13.899Z,21.07
2019-04-06T09:08:13.879Z,21.10
2019-04-06T09:09:13.864Z,21.07
2019-04-06T09:10:13.964Z,21.08
2019-04-06T09:11:13.846Z,21.10
2019-04-06T09:12:13.859Z,21.00
2019-04-06T09:13:13.823Z,21.04
2019-04-06T09:14:13.964Z,21.05
2019-04-06T09:15:13.800Z,21.07
2019-04-06T09:16:13.799Z,21.04
2019-04-06T09:17:13.794Z,21.05
2019-04-06T09:18:13.848Z,21.05
2019-04-06T09:19:13.759Z,21.11
2019-04-06T09:20:13.752Z,21.03
2019-04-06T09:21:13.878Z,21.07
2019-04-06T09:22:13.822Z,21.05
2019-04-06T09:23:13.715Z,21.13
2019-04-06T09:24:13.708Z,21.25
2019-04-06T09:25:13.696Z,21.38
2019-04-06T09:26:13.688Z,21.62
2019-04-06T09:27:13.688Z,21.70
2019-04-06T09:28:13.666Z,22.00
2019-04-06T09:29:22.960Z,22.19
2019-04-06T09:30:14.866Z,22.49
2019-04-06T09:31:13.637Z,22.68
2019-04-06T09:32:13.635Z,23.02
2019-04-06T09:33:13.610Z,23.23
2019-04-06T09:34:13.603Z,23.29
2019-04-06T09:35:13.738Z,23.52
2019-04-06T09:36:13.613Z,23.67
2019-04-06T09:37:13.575Z,23.77
2019-04-06T09:38:13.561Z,23.84
2019-04-06T09:39:13.547Z,23.86
2019-04-06T09:40:13.554Z,23.88
2019-04-06T09:41:13.526Z,23.91
2019-04-06T09:42:13.634Z,23.96
2019-04-06T09:43:13.506Z,23.96
2019-04-06T09:44:13.669Z,23.99
2019-04-06T09:45:13.689Z,24.06
2019-04-06T09:46:13.512Z,24.04
2019-04-06T09:47:13.471Z,24.13
2019-04-06T09:48:13.463Z,24.07
2019-04-06T09:49:13.688Z,24.18
2019-04-06T09:50:13.432Z,24.19
2019-04-06T09:51:13.420Z,24.25
2019-04-06T09:52:13.432Z,24.21
2019-04-06T09:53:13.405Z,24.19
2019-04-06T09:54:13.454Z,24.24
2019-04-06T09:55:13.377Z,24.19
2019-04-06T09:56:13.371Z,24.18
2019-04-06T09:57:13.631Z,24.18
2019-04-06T09:58:13.365Z,24.14
2019-04-06T09:59:13.374Z,24.07
2019-04-06T10:00:13.330Z,24.04
2019-04-06T10:01:13.314Z,23.89
2019-04-06T10:02:13.455Z,24.06
2019-04-06T10:03:13.313Z,23.88
2019-04-06T10:04:13.287Z,23.92
2019-04-06T10:05:13.278Z,23.86
2019-04-06T10:06:13.493Z,23.82
2019-04-06T10:07:13.253Z,23.77
2019-04-06T10:08:13.431Z,23.63
2019-04-06T10:09:13.336Z,23.51
2019-04-06T10:10:13.434Z,23.39
2019-04-06T10:11:13.210Z,23.28
2019-04-06T10:12:13.205Z,23.32
2019-04-06T10:13:13.670Z,23.18
2019-04-06T10:14:13.287Z,23.11
2019-04-06T10:15:13.214Z,23.14
2019-04-06T10:16:13.807Z,23.02
2019-04-06T10:17:13.241Z,22.98
2019-04-06T10:18:13.761Z,22.95
2019-04-06T10:19:13.488Z,22.89
2019-04-06T10:20:13.347Z,22.81
2019-04-06T10:21:13.241Z,22.81
2019-04-06T10:22:13.557Z,22.68
2019-04-06T10:23:13.473Z,22.63
2019-04-06T10:24:13.209Z,22.74
2019-04-06T10:25:13.078Z,22.65
2019-04-06T10:26:13.490Z,22.65
2019-04-06T10:27:13.129Z,22.62
2019-04-06T10:28:13.052Z,22.61
2019-04-06T10:29:13.040Z,22.44
2019-04-06T10:30:13.091Z,22.51
2019-04-06T10:31:13.005Z,22.47
2019-04-06T10:32:13.078Z,22.46
2019-04-06T10:33:13.329Z,22.44
2019-04-06T10:34:13.052Z,22.37
2019-04-06T10:35:13.007Z,22.41
2019-04-06T10:36:12.954Z,22.37
2019-04-06T10:37:12.943Z,22.40
2019-04-06T10:38:12.953Z,22.31
2019-04-06T10:39:12.956Z,22.33
2019-04-06T10:40:12.971Z,22.28
2019-04-06T10:41:12.898Z,22.25
2019-04-06T10:42:13.045Z,22.28
2019-04-06T10:43:13.040Z,22.22
2019-04-06T10:44:12.878Z,22.31
2019-04-06T10:45:12.951Z,22.33
2019-04-06T10:46:13.143Z,22.25
2019-04-06T10:47:12.849Z,22.25
2019-04-06T10:48:12.848Z,22.22
2019-04-06T10:49:12.819Z,22.28
2019-04-06T10:50:12.811Z,22.22
2019-04-06T10:51:13.028Z,22.16
2019-04-06T10:52:12.787Z,22.25
2019-04-06T10:53:12.787Z,22.18
2019-04-06T10:54:12.820Z,22.21
2019-04-06T10:55:12.758Z,22.23
2019-04-06T10:56:12.804Z,22.21
2019-04-06T10:57:12.737Z,22.23
2019-04-06T10:58:12.744Z,22.15
2019-04-06T10:59:12.715Z,22.23
2019-04-06T11:00:12.712Z,22.14
2019-04-06T11:01:12.689Z,22.21
2019-04-06T11:02:12.683Z,22.22
2019-04-06T11:03:12.788Z,22.12
2019-04-06T11:04:12.883Z,22.14
2019-04-06T11:05:12.903Z,22.16
2019-04-06T11:06:12.645Z,22.18
2019-04-06T11:07:12.628Z,22.14
2019-04-06T11:08:12.636Z,22.15
2019-04-06T11:09:12.612Z,22.10
2019-04-06T11:10:12.614Z,22.18
2019-04-06T11:11:12.593Z,22.18
2019-04-06T11:12:12.580Z,22.21
2019-04-06T11:13:12.579Z,22.18
2019-04-06T11:14:12.558Z,22.14
2019-04-06T11:15:12.578Z,22.14
2019-04-06T11:16:12.538Z,22.18
2019-04-06T11:17:12.626Z,22.10
2019-04-06T11:18:12.705Z,22.15
2019-04-06T11:19:12.513Z,22.10
2019-04-06T11:20:12.947Z,22.08
2019-04-06T11:21:12.489Z,22.01
2019-04-06T11:22:12.488Z,22.14
2019-04-06T11:23:12.806Z,22.07
2019-04-06T11:24:12.706Z,22.00
2019-04-06T11:25:12.447Z,22.04
2019-04-06T11:26:12.432Z,22.10
2019-04-06T11:27:12.681Z,22.06
2019-04-06T11:28:12.429Z,21.99
2019-04-06T11:29:12.404Z,22.07
2019-04-06T11:30:14.682Z,22.08
2019-04-06T11:31:12.384Z,22.07
2019-04-06T11:32:12.374Z,22.03
2019-04-06T11:33:12.374Z,21.97
2019-04-06T11:34:12.519Z,22.04
2019-04-06T11:35:12.615Z,22.07
2019-04-06T11:36:12.329Z,22.06
2019-04-06T11:37:12.532Z,22.04
2019-04-06T11:38:12.357Z,22.03
2019-04-06T11:39:12.311Z,22.03
2019-04-06T11:40:12.366Z,22.03
2019-04-06T11:41:12.305Z,22.12
2019-04-06T11:42:12.306Z,22.08
2019-04-06T11:43:12.275Z,22.07
2019-04-06T11:44:12.250Z,22.01
2019-04-06T11:45:12.236Z,22.00
2019-04-06T11:46:12.224Z,22.06
2019-04-06T11:47:12.224Z,22.06
2019-04-06T11:48:12.221Z,22.00
2019-04-06T11:49:12.432Z,22.01
2019-04-06T11:50:12.187Z,22.04
2019-04-06T11:51:12.174Z,22.04
2019-04-06T11:52:12.555Z,22.08
2019-04-06T11:53:12.174Z,22.07
2019-04-06T11:54:12.231Z,22.00
2019-04-06T11:55:12.145Z,22.00
2019-04-06T11:56:12.118Z,22.03
2019-04-06T11:57:12.111Z,22.04
2019-04-06T11:58:12.160Z,22.04
2019-04-06T11:59:12.211Z,22.04
2019-04-06T12:00:23.560Z,22.03
2019-04-06T12:01:13.064Z,21.99
2019-04-06T12:02:12.063Z,22.06
2019-04-06T12:03:12.087Z,22.04
2019-04-06T12:04:12.323Z,22.06
2019-04-06T12:05:12.073Z,22.01
2019-04-06T12:06:12.021Z,22.01
2019-04-06T12:07:12.407Z,22.01
2019-04-06T12:08:12.026Z,21.97
2019-04-06T12:09:11.988Z,22.04
2019-04-06T12:10:11.979Z,21.99
2019-04-06T12:11:11.966Z,22.06
2019-04-06T12:12:11.964Z,21.99
2019-04-06T12:13:11.956Z,22.01
2019-04-06T12:14:11.934Z,22.01
2019-04-06T12:15:11.926Z,22.03
2019-04-06T12:16:11.915Z,22.00
2019-04-06T12:17:12.096Z,22.07
2019-04-06T12:18:12.024Z,22.06
2019-04-06T12:19:11.961Z,22.00
2019-04-06T12:20:11.886Z,22.03
2019-04-06T12:21:11.871Z,22.07
2019-04-06T12:22:12.034Z,22.03
2019-04-06T12:23:11.934Z,21.99
2019-04-06T12:24:11.828Z,22.08
2019-04-06T12:25:11.820Z,22.03
2019-04-06T12:26:11.811Z,22.01
2019-04-06T12:27:11.807Z,22.00
2019-04-06T12:28:11.838Z,22.10
2019-04-06T12:29:12.073Z,22.03
2019-04-06T12:30:11.766Z,21.96
2019-04-06T12:31:11.966Z,22.04
2019-04-06T12:32:11.743Z,22.01
2019-04-06T12:33:11.758Z,22.06
2019-04-06T12:34:11.718Z,22.01
2019-04-06T12:35:11.915Z,21.99
2019-04-06T12:36:11.764Z,22.06
2019-04-06T12:37:11.704Z,22.00
2019-04-06T12:38:11.967Z,22.07
2019-04-06T12:39:11.683Z,22.03
2019-04-06T12:40:11.791Z,22.03
2019-04-06T12:41:11.651Z,22.06
2019-04-06T12:42:11.630Z,22.03
2019-04-06T12:43:11.890Z,22.08
2019-04-06T12:44:11.624Z,22.01
2019-04-06T12:45:11.628Z,22.08
2019-04-06T12:46:11.604Z,22.00
2019-04-06T12:47:11.973Z,22.08
2019-04-06T12:48:11.842Z,22.14
2019-04-06T12:49:11.557Z,22.03
2019-04-06T12:50:11.818Z,22.08
2019-04-06T12:51:11.538Z,22.07
2019-04-06T12:52:11.574Z,22.04